Terminal Aerodrome Forecast
Issued by NWS Spokane, WA

Home | Current Version | Previous Version | Text Only | Print | Product List | Glossary On
Versions: 1 2 3 4 5 6 7 8 9 10 11 12 13 14 15 16 17 18 19 20 21 22 23 24 25 26 27 28 29 30 31
000
FTUS46 KOTX 250429 AAD
TAFGEG
TAF AMD
KGEG 250429Z 2504/2524 00000KT 1/4SM FZFG SCT001
      TEMPO 2504/2508 1/2SM FZFG VV001
     FM251000 VRB02KT 1SM BCFG OVC009
     FM251400 23005KT 6SM BCFG FEW001 BKN010
     FM251900 23010G18KT P6SM SCT025 BKN200=

USA.gov is the U.S. government's official web portal to all federal, state and local government web resources and services.